sensor_id;sensor_type;location;lat;lon;timestamp;pressure;altitude;pressure_sealevel;temperature;humidity
22333;BME280;11334;36.986;-121.936;2024-01-15T00:01:29;101418.78;;;16.47;100.00
22333;BME280;11334;36.986;-121.936;2024-01-15T00:03:55;101408.91;;;16.48;100.00
22333;BME280;11334;36.986;-121.936;2024-01-15T00:06:22;101414.25;;;16.48;100.00
22333;BME280;11334;36.986;-121.936;2024-01-15T00:08:48;101414.25;;;16.48;100.00
22333;BME280;11334;36.986;-121.936;2024-01-15T00:11:14;101416.00;;;16.41;100.00
22333;BME280;11334;36.986;-121.936;2024-01-15T00:13:40;101423.34;;;16.39;100.00
22333;BME280;11334;36.986;-121.936;2024-01-15T00:16:06;101421.41;;;16.33;100.00
22333;BME280;11334;36.986;-121.936;2024-01-15T00:18:32;101413.91;;;16.29;100.00
22333;BME280;11334;36.986;-121.936;2024-01-15T00:20:59;101425.78;;;16.26;100.00
22333;BME280;11334;36.986;-121.936;2024-01-15T00:23:25;101428.09;;;16.29;100.00
22333;BME280;11334;36.986;-121.936;2024-01-15T00:25:51;101426.16;;;16.23;100.00
22333;BME280;11334;36.986;-121.936;2024-01-15T00:28:17;101421.31;;;16.19;100.00
22333;BME280;11334;36.986;-121.936;2024-01-15T00:30:44;101430.00;;;16.21;100.00
22333;BME280;11334;36.986;-121.936;2024-01-15T00:33:10;101432.84;;;16.19;100.00
22333;BME280;11334;36.986;-121.936;2024-01-15T00:35:38;101436.69;;;16.17;100.00
22333;BME280;11334;36.986;-121.936;2024-01-15T00:38:04;101424.50;;;16.14;100.00
22333;BME280;11334;36.986;-121.936;2024-01-15T00:40:30;101425.53;;;16.13;100.00
22333;BME280;11334;36.986;-121.936;2024-01-15T00:42:56;101419.84;;;16.09;100.00
22333;BME280;11334;36.986;-121.936;2024-01-15T00:45:22;101426.50;;;16.12;100.00
22333;BME280;11334;36.986;-121.936;2024-01-15T00:47:48;101426.50;;;16.12;100.00
22333;BME280;11334;36.986;-121.936;2024-01-15T00:50:15;101431.84;;;16.12;100.00
22333;BME280;11334;36.986;-121.936;2024-01-15T00:52:41;101433.88;;;16.18;100.00
22333;BME280;11334;36.986;-121.936;2024-01-15T00:55:07;101435.69;;;16.10;100.00
22333;BME280;11334;36.986;-121.936;2024-01-15T00:57:33;101430.53;;;16.09;100.00
22333;BME280;11334;36.986;-121.936;2024-01-15T01:00:00;101438.56;;;16.09;100.00
22333;BME280;11334;36.986;-121.936;2024-01-15T01:02:26;101438.41;;;16.02;100.00
22333;BME280;11334;36.986;-121.936;2024-01-15T01:04:52;101446.63;;;15.93;100.00
22333;BME280;11334;36.986;-121.936;2024-01-15T01:07:18;101448.66;;;15.91;100.00
22333;BME280;11334;36.986;-121.936;2024-01-15T01:09:45;101437.00;;;15.84;100.00
22333;BME280;11334;36.986;-121.936;2024-01-15T01:12:11;101446.41;;;15.72;100.00
22333;BME280;11334;36.986;-121.936;2024-01-15T01:14:37;101443.56;;;15.66;100.00
22333;BME280;11334;36.986;-121.936;2024-01-15T01:17:04;101439.59;;;15.62;100.00
22333;BME280;11334;36.986;-121.936;2024-01-15T01:19:30;101441.75;;;15.58;100.00
22333;BME280;11334;36.986;-121.936;2024-01-15T01:21:56;101439.75;;;15.60;100.00
22333;BME280;11334;36.986;-121.936;2024-01-15T01:24:22;101445.59;;;15.56;100.00
22333;BME280;11334;36.986;-121.936;2024-01-15T01:26:48;101443.81;;;15.41;100.00
22333;BME280;11334;36.986;-121.936;2024-01-15T01:29:15;101450.50;;;15.45;100.00
22333;BME280;11334;36.986;-121.936;2024-01-15T01:31:44;101460.66;;;15.41;100.00
22333;BME280;11334;36.986;-121.936;2024-01-15T01:34:13;101454.00;;;15.37;100.00
22333;BME280;11334;36.986;-121.936;2024-01-15T01:36:39;101454.84;;;15.30;100.00
22333;BME280;11334;36.986;-121.936;2024-01-15T01:39:06;101456.00;;;15.19;100.00
22333;BME280;11334;36.986;-121.936;2024-01-15T01:41:32;101460.19;;;15.14;100.00
22333;BME280;11334;36.986;-121.936;2024-01-15T01:43:58;101459.22;;;15.15;100.00
22333;BME280;11334;36.986;-121.936;2024-01-15T01:46:27;101460.38;;;15.13;100.00
22333;BME280;11334;36.986;-121.936;2024-01-15T01:48:55;101460.19;;;15.06;100.00
22333;BME280;11334;36.986;-121.936;2024-01-15T01:51:23;101464.19;;;15.02;100.00
22333;BME280;11334;36.986;-121.936;2024-01-15T01:53:50;101467.03;;;15.01;100.00
22333;BME280;11334;36.986;-121.936;2024-01-15T01:56:17;101468.53;;;14.95;100.00
22333;BME280;11334;36.986;-121.936;2024-01-15T01:58:47;101474.50;;;14.89;100.00
22333;BME280;11334;36.986;-121.936;2024-01-15T02:01:15;101471.22;;;14.87;100.00
22333;BME280;11334;36.986;-121.936;2024-01-15T02:03:41;101475.19;;;14.84;100.00
22333;BME280;11334;36.986;-121.936;2024-01-15T02:06:08;101470.00;;;14.74;100.00
22333;BME280;11334;36.986;-121.936;2024-01-15T02:08:35;101487.72;;;14.75;100.00
22333;BME280;11334;36.986;-121.936;2024-01-15T02:11:02;101480.19;;;14.71;100.00
22333;BME280;11334;36.986;-121.936;2024-01-15T02:13:28;101491.19;;;14.68;100.00
22333;BME280;11334;36.986;-121.936;2024-01-15T02:15:55;101483.84;;;14.62;100.00
22333;BME280;11334;36.986;-121.936;2024-01-15T02:18:21;101482.97;;;14.46;100.00
22333;BME280;11334;36.986;-121.936;2024-01-15T02:20:47;101483.81;;;14.46;100.00
22333;BME280;11334;36.986;-121.936;2024-01-15T02:23:15;101483.13;;;14.44;100.00
22333;BME280;11334;36.986;-121.936;2024-01-15T02:25:46;101471.63;;;14.36;100.00
22333;BME280;11334;36.986;-121.936;2024-01-15T02:28:17;101489.47;;;14.43;100.00
22333;BME280;11334;36.986;-121.936;2024-01-15T02:30:44;101478.97;;;14.42;100.00
22333;BME280;11334;36.986;-121.936;2024-01-15T02:33:11;101480.13;;;14.39;100.00
22333;BME280;11334;36.986;-121.936;2024-01-15T02:35:38;101486.75;;;14.35;100.00
22333;BME280;11334;36.986;-121.936;2024-01-15T02:38:05;101483.59;;;14.32;100.00
22333;BME280;11334;36.986;-121.936;2024-01-15T02:40:32;101480.09;;;14.23;100.00
22333;BME280;11334;36.986;-121.936;2024-01-15T02:42:59;101488.38;;;14.21;100.00
22333;BME280;11334;36.986;-121.936;2024-01-15T02:45:25;101491.34;;;14.10;100.00
22333;BME280;11334;36.986;-121.936;2024-01-15T02:47:51;101490.00;;;14.06;100.00
22333;BME280;11334;36.986;-121.936;2024-01-15T02:50:18;101496.66;;;14.02;100.00
22333;BME280;11334;36.986;-121.936;2024-01-15T02:52:44;101496.28;;;13.97;100.00
22333;BME280;11334;36.986;-121.936;2024-01-15T02:55:10;101497.06;;;13.89;100.00
22333;BME280;11334;36.986;-121.936;2024-01-15T02:57:37;101506.69;;;13.83;100.00
22333;BME280;11334;36.986;-121.936;2024-01-15T03:00:03;101507.38;;;13.85;100.00
22333;BME280;11334;36.986;-121.936;2024-01-15T03:02:30;101501.19;;;13.76;100.00
22333;BME280;11334;36.986;-121.936;2024-01-15T03:04:59;101491.47;;;13.67;100.00
22333;BME280;11334;36.986;-121.936;2024-01-15T03:07:25;101500.59;;;13.65;100.00
22333;BME280;11334;36.986;-121.936;2024-01-15T03:09:51;101500.75;;;13.63;100.00
22333;BME280;11334;36.986;-121.936;2024-01-15T03:12:17;101508.38;;;13.58;100.00
22333;BME280;11334;36.986;-121.936;2024-01-15T03:14:44;101510.06;;;13.59;100.00
22333;BME280;11334;36.986;-121.936;2024-01-15T03:17:10;101507.06;;;13.62;100.00
22333;BME280;11334;36.986;-121.936;2024-01-15T03:19:37;101510.00;;;13.52;100.00
22333;BME280;11334;36.986;-121.936;2024-01-15T03:22:04;101511.81;;;13.51;100.00
22333;BME280;11334;36.986;-121.936;2024-01-15T03:24:32;101508.97;;;13.45;100.00
22333;BME280;11334;36.986;-121.936;2024-01-15T03:26:58;101506.63;;;13.42;100.00
22333;BME280;11334;36.986;-121.936;2024-01-15T03:29:25;101505.75;;;13.41;100.00
22333;BME280;11334;36.986;-121.936;2024-01-15T03:31:52;101496.47;;;13.45;100.00
22333;BME280;11334;36.986;-121.936;2024-01-15T03:34:18;101500.25;;;13.35;100.00
22333;BME280;11334;36.986;-121.936;2024-01-15T03:36:44;101502.69;;;13.28;100.00
22333;BME280;11334;36.986;-121.936;2024-01-15T03:39:11;101497.66;;;13.26;100.00
22333;BME280;11334;36.986;-121.936;2024-01-15T03:41:37;101492.13;;;13.19;100.00
22333;BME280;11334;36.986;-121.936;2024-01-15T03:44:03;101486.50;;;13.22;100.00
22333;BME280;11334;36.986;-121.936;2024-01-15T03:46:29;101493.97;;;13.19;100.00
22333;BME280;11334;36.986;-121.936;2024-01-15T03:48:56;101494.50;;;13.22;100.00
22333;BME280;11334;36.986;-121.936;2024-01-15T03:51:23;101507.06;;;13.12;100.00
22333;BME280;11334;36.986;-121.936;2024-01-15T03:53:49;101493.44;;;13.15;100.00
22333;BME280;11334;36.986;-121.936;2024-01-15T03:56:15;101495.50;;;13.04;100.00
22333;BME280;11334;36.986;-121.936;2024-01-15T03:58:42;101494.81;;;13.02;100.00
22333;BME280;11334;36.986;-121.936;2024-01-15T04:01:09;101495.13;;;12.99;100.00
22333;BME280;11334;36.986;-121.936;2024-01-15T04:03:36;101494.66;;;13.03;100.00
22333;BME280;11334;36.986;-121.936;2024-01-15T04:06:05;101495.66;;;13.02;100.00
22333;BME280;11334;36.986;-121.936;2024-01-15T04:08:32;101492.78;;;12.96;100.00
22333;BME280;11334;36.986;-121.936;2024-01-15T04:10:58;101494.28;;;12.98;100.00
22333;BME280;11334;36.986;-121.936;2024-01-15T04:13:24;101483.59;;;12.91;100.00
22333;BME280;11334;36.986;-121.936;2024-01-15T04:15:50;101485.56;;;12.89;100.00
22333;BME280;11334;36.986;-121.936;2024-01-15T04:18:16;101490.88;;;12.89;100.00
22333;BME280;11334;36.986;-121.936;2024-01-15T04:20:46;101500.75;;;12.79;100.00
22333;BME280;11334;36.986;-121.936;2024-01-15T04:23:12;101512.13;;;12.71;100.00
22333;BME280;11334;36.986;-121.936;2024-01-15T04:25:38;101509.31;;;12.56;100.00
22333;BME280;11334;36.986;-121.936;2024-01-15T04:28:11;101513.50;;;12.58;100.00
22333;BME280;11334;36.986;-121.936;2024-01-15T04:30:37;101512.38;;;12.61;100.00
22333;BME280;11334;36.986;-121.936;2024-01-15T04:33:04;101513.19;;;12.61;100.00
22333;BME280;11334;36.986;-121.936;2024-01-15T04:35:30;101515.69;;;12.62;100.00
22333;BME280;11334;36.986;-121.936;2024-01-15T04:37:57;101518.81;;;12.58;100.00
22333;BME280;11334;36.986;-121.936;2024-01-15T04:40:23;101517.50;;;12.45;100.00
22333;BME280;11334;36.986;-121.936;2024-01-15T04:42:49;101522.81;;;12.45;100.00
22333;BME280;11334;36.986;-121.936;2024-01-15T04:45:15;101514.31;;;12.41;100.00
22333;BME280;11334;36.986;-121.936;2024-01-15T04:47:44;101528.97;;;12.45;100.00
22333;BME280;11334;36.986;-121.936;2024-01-15T04:50:10;101531.47;;;12.47;100.00
22333;BME280;11334;36.986;-121.936;2024-01-15T04:52:36;101538.91;;;12.43;100.00
22333;BME280;11334;36.986;-121.936;2024-01-15T04:55:02;101538.63;;;12.46;100.00
22333;BME280;11334;36.986;-121.936;2024-01-15T04:57:29;101532.22;;;12.39;100.00
22333;BME280;11334;36.986;-121.936;2024-01-15T04:59:55;101533.22;;;12.38;100.00
22333;BME280;11334;36.986;-121.936;2024-01-15T05:02:21;101541.75;;;12.32;100.00
22333;BME280;11334;36.986;-121.936;2024-01-15T05:04:47;101544.16;;;12.35;100.00
22333;BME280;11334;36.986;-121.936;2024-01-15T05:07:13;101535.91;;;12.29;100.00
22333;BME280;11334;36.986;-121.936;2024-01-15T05:09:39;101529.13;;;12.17;100.00
22333;BME280;11334;36.986;-121.936;2024-01-15T05:12:06;101536.91;;;12.28;100.00
22333;BME280;11334;36.986;-121.936;2024-01-15T05:14:32;101534.41;;;12.27;100.00
22333;BME280;11334;36.986;-121.936;2024-01-15T05:16:58;101536.13;;;12.18;100.00
22333;BME280;11334;36.986;-121.936;2024-01-15T05:19:24;101531.09;;;12.15;100.00
22333;BME280;11334;36.986;-121.936;2024-01-15T05:21:51;101546.38;;;12.13;100.00
22333;BME280;11334;36.986;-121.936;2024-01-15T05:24:17;101534.66;;;12.06;100.00
22333;BME280;11334;36.986;-121.936;2024-01-15T05:26:43;101550.41;;;12.08;100.00
22333;BME280;11334;36.986;-121.936;2024-01-15T05:29:09;101556.03;;;12.05;100.00
22333;BME280;11334;36.986;-121.936;2024-01-15T05:31:36;101552.13;;;11.99;100.00
22333;BME280;11334;36.986;-121.936;2024-01-15T05:34:02;101553.53;;;12.03;100.00
22333;BME280;11334;36.986;-121.936;2024-01-15T05:36:28;101550.63;;;11.97;100.00
22333;BME280;11334;36.986;-121.936;2024-01-15T05:38:54;101557.59;;;11.98;100.00
22333;BME280;11334;36.986;-121.936;2024-01-15T05:41:21;101559.84;;;11.93;100.00
22333;BME280;11334;36.986;-121.936;2024-01-15T05:43:47;101554.72;;;11.82;100.00
22333;BME280;11334;36.986;-121.936;2024-01-15T05:46:13;101552.38;;;11.79;100.00
22333;BME280;11334;36.986;-121.936;2024-01-15T05:48:41;101560.03;;;11.82;100.00
22333;BME280;11334;36.986;-121.936;2024-01-15T05:51:07;101551.78;;;11.85;100.00
22333;BME280;11334;36.986;-121.936;2024-01-15T05:53:33;101552.38;;;11.79;100.00
22333;BME280;11334;36.986;-121.936;2024-01-15T05:55:59;101558.94;;;11.75;100.00
22333;BME280;11334;36.986;-121.936;2024-01-15T05:58:27;101551.84;;;11.67;100.00
22333;BME280;11334;36.986;-121.936;2024-01-15T06:00:53;101556.69;;;11.71;100.00
22333;BME280;11334;36.986;-121.936;2024-01-15T06:03:19;101552.09;;;11.73;100.00
22333;BME280;11334;36.986;-121.936;2024-01-15T06:05:45;101554.50;;;11.67;100.00
22333;BME280;11334;36.986;-121.936;2024-01-15T06:08:11;101563.31;;;11.67;100.00
22333;BME280;11334;36.986;-121.936;2024-01-15T06:10:38;101568.75;;;11.66;100.00
22333;BME280;11334;36.986;-121.936;2024-01-15T06:13:04;101573.81;;;11.59;100.00
22333;BME280;11334;36.986;-121.936;2024-01-15T06:15:30;101575.19;;;11.54;100.00
22333;BME280;11334;36.986;-121.936;2024-01-15T06:17:56;101571.84;;;11.52;100.00
22333;BME280;11334;36.986;-121.936;2024-01-15T06:20:22;101577.72;;;11.55;100.00
22333;BME280;11334;36.986;-121.936;2024-01-15T06:22:49;101575.88;;;11.56;100.00
22333;BME280;11334;36.986;-121.936;2024-01-15T06:25:15;101574.66;;;11.50;100.00
22333;BME280;11334;36.986;-121.936;2024-01-15T06:27:41;101583.84;;;11.56;100.00
22333;BME280;11334;36.986;-121.936;2024-01-15T06:30:08;101576.88;;;11.55;100.00
22333;BME280;11334;36.986;-121.936;2024-01-15T06:32:34;101581.63;;;11.51;100.00
22333;BME280;11334;36.986;-121.936;2024-01-15T06:35:00;101578.53;;;11.46;100.00
22333;BME280;11334;36.986;-121.936;2024-01-15T06:37:26;101588.75;;;11.41;100.00
22333;BME280;11334;36.986;-121.936;2024-01-15T06:39:52;101579.66;;;11.35;100.00
22333;BME280;11334;36.986;-121.936;2024-01-15T06:42:19;101591.13;;;11.35;100.00
22333;BME280;11334;36.986;-121.936;2024-01-15T06:44:47;101600.22;;;11.42;100.00
22333;BME280;11334;36.986;-121.936;2024-01-15T06:47:13;101599.22;;;11.43;100.00
22333;BME280;11334;36.986;-121.936;2024-01-15T06:49:40;101594.31;;;11.38;100.00
22333;BME280;11334;36.986;-121.936;2024-01-15T06:52:06;101592.50;;;11.39;100.00
22333;BME280;11334;36.986;-121.936;2024-01-15T06:54:32;101582.31;;;11.35;100.00
22333;BME280;11334;36.986;-121.936;2024-01-15T06:56:59;101592.09;;;11.34;100.00
22333;BME280;11334;36.986;-121.936;2024-01-15T06:59:25;101596.56;;;11.34;100.00
22333;BME280;11334;36.986;-121.936;2024-01-15T07:01:51;101586.81;;;11.34;100.00
22333;BME280;11334;36.986;-121.936;2024-01-15T07:04:17;101593.06;;;11.33;100.00
22333;BME280;11334;36.986;-121.936;2024-01-15T07:06:43;101591.81;;;11.28;100.00
22333;BME280;11334;36.986;-121.936;2024-01-15T07:09:10;101604.50;;;11.34;100.00
22333;BME280;11334;36.986;-121.936;2024-01-15T07:11:36;101598.25;;;11.25;100.00
22333;BME280;11334;36.986;-121.936;2024-01-15T07:14:04;101588.88;;;11.21;100.00
22333;BME280;11334;36.986;-121.936;2024-01-15T07:16:30;101596.16;;;11.19;100.00
22333;BME280;11334;36.986;-121.936;2024-01-15T07:18:56;101585.81;;;11.16;100.00
22333;BME280;11334;36.986;-121.936;2024-01-15T07:21:22;101587.91;;;11.22;100.00
22333;BME280;11334;36.986;-121.936;2024-01-15T07:23:49;101595.88;;;11.22;100.00
22333;BME280;11334;36.986;-121.936;2024-01-15T07:26:15;101598.66;;;11.21;100.00
22333;BME280;11334;36.986;-121.936;2024-01-15T07:28:41;101599.66;;;11.20;100.00
22333;BME280;11334;36.986;-121.936;2024-01-15T07:31:08;101609.97;;;11.13;100.00
22333;BME280;11334;36.986;-121.936;2024-01-15T07:33:34;101600.34;;;11.12;100.00
22333;BME280;11334;36.986;-121.936;2024-01-15T07:36:01;101600.06;;;11.15;100.00
22333;BME280;11334;36.986;-121.936;2024-01-15T07:38:28;101601.16;;;11.13;100.00
22333;BME280;11334;36.986;-121.936;2024-01-15T07:40:54;101604.22;;;10.99;100.00
22333;BME280;11334;36.986;-121.936;2024-01-15T07:43:21;101588.47;;;10.98;100.00
22333;BME280;11334;36.986;-121.936;2024-01-15T07:45:48;101587.66;;;10.97;100.00
22333;BME280;11334;36.986;-121.936;2024-01-15T07:48:14;101591.13;;;10.98;100.00
22333;BME280;11334;36.986;-121.936;2024-01-15T07:50:40;101591.84;;;11.00;100.00
22333;BME280;11334;36.986;-121.936;2024-01-15T07:53:06;101594.72;;;10.97;100.00
22333;BME280;11334;36.986;-121.936;2024-01-15T07:55:33;101588.75;;;10.95;100.00
22333;BME280;11334;36.986;-121.936;2024-01-15T07:57:59;101588.59;;;10.87;100.00
22333;BME280;11334;36.986;-121.936;2024-01-15T08:00:25;101579.53;;;10.89;100.00
22333;BME280;11334;36.986;-121.936;2024-01-15T08:02:51;101586.34;;;10.92;100.00
22333;BME280;11334;36.986;-121.936;2024-01-15T08:05:18;101572.97;;;10.93;100.00
22333;BME280;11334;36.986;-121.936;2024-01-15T08:07:47;101577.16;;;10.96;100.00
22333;BME280;11334;36.986;-121.936;2024-01-15T08:10:13;101577.88;;;10.98;100.00
22333;BME280;11334;36.986;-121.936;2024-01-15T08:12:39;101574.50;;;10.96;100.00
22333;BME280;11334;36.986;-121.936;2024-01-15T08:15:06;101576.34;;;10.95;100.00
22333;BME280;11334;36.986;-121.936;2024-01-15T08:17:32;101581.91;;;10.83;100.00
22333;BME280;11334;36.986;-121.936;2024-01-15T08:19:58;101583.53;;;10.74;100.00
22333;BME280;11334;36.986;-121.936;2024-01-15T08:22:26;101598.22;;;10.88;100.00
22333;BME280;11334;36.986;-121.936;2024-01-15T08:24:52;101599.50;;;10.93;100.00
22333;BME280;11334;36.986;-121.936;2024-01-15T08:27:19;101603.13;;;10.92;100.00
22333;BME280;11334;36.986;-121.936;2024-01-15T08:29:45;101610.38;;;10.90;100.00
22333;BME280;11334;36.986;-121.936;2024-01-15T08:32:11;101621.06;;;10.79;100.00
22333;BME280;11334;36.986;-121.936;2024-01-15T08:34:41;101619.81;;;10.74;100.00
22333;BME280;11334;36.986;-121.936;2024-01-15T08:37:08;101619.69;;;10.75;100.00
22333;BME280;11334;36.986;-121.936;2024-01-15T08:39:34;101619.97;;;10.73;100.00
22333;BME280;11334;36.986;-121.936;2024-01-15T08:42:05;101618.69;;;10.67;100.00
22333;BME280;11334;36.986;-121.936;2024-01-15T08:44:31;101616.22;;;10.75;100.00
22333;BME280;11334;36.986;-121.936;2024-01-15T08:46:57;101619.72;;;10.85;100.00
22333;BME280;11334;36.986;-121.936;2024-01-15T08:49:24;101626.13;;;10.82;100.00
22333;BME280;11334;36.986;-121.936;2024-01-15T08:51:50;101637.28;;;10.86;100.00
22333;BME280;11334;36.986;-121.936;2024-01-15T08:54:16;101632.97;;;10.85;100.00
22333;BME280;11334;36.986;-121.936;2024-01-15T08:56:43;101619.38;;;10.69;100.00
22333;BME280;11334;36.986;-121.936;2024-01-15T08:59:09;101616.47;;;10.72;100.00
22333;BME280;11334;36.986;-121.936;2024-01-15T09:01:38;101616.34;;;10.73;100.00
22333;BME280;11334;36.986;-121.936;2024-01-15T09:04:05;101610.63;;;10.78;100.00
22333;BME280;11334;36.986;-121.936;2024-01-15T09:06:31;101610.63;;;10.78;100.00
22333;BME280;11334;36.986;-121.936;2024-01-15T09:08:57;101610.91;;;10.84;100.00
22333;BME280;11334;36.986;-121.936;2024-01-15T09:11:23;101606.72;;;10.91;100.00
22333;BME280;11334;36.986;-121.936;2024-01-15T09:13:50;101603.97;;;10.93;100.00
22333;BME280;11334;36.986;-121.936;2024-01-15T09:16:17;101607.13;;;10.87;100.00
22333;BME280;11334;36.986;-121.936;2024-01-15T09:18:43;101601.25;;;10.74;100.00
22333;BME280;11334;36.986;-121.936;2024-01-15T09:21:10;101599.75;;;10.81;100.00
22333;BME280;11334;36.986;-121.936;2024-01-15T09:23:36;101592.09;;;10.78;100.00
22333;BME280;11334;36.986;-121.936;2024-01-15T09:26:02;101589.72;;;10.75;100.00
22333;BME280;11334;36.986;-121.936;2024-01-15T09:28:29;101579.53;;;10.80;100.00
22333;BME280;11334;36.986;-121.936;2024-01-15T09:30:55;101575.06;;;10.80;100.00
22333;BME280;11334;36.986;-121.936;2024-01-15T09:33:21;101580.91;;;10.84;100.00
22333;BME280;11334;36.986;-121.936;2024-01-15T09:35:47;101586.09;;;10.85;100.00
22333;BME280;11334;36.986;-121.936;2024-01-15T09:38:13;101579.53;;;10.89;100.00
22333;BME280;11334;36.986;-121.936;2024-01-15T09:40:43;101584.81;;;10.89;100.00
22333;BME280;11334;36.986;-121.936;2024-01-15T09:43:12;101583.84;;;10.81;100.00
22333;BME280;11334;36.986;-121.936;2024-01-15T09:45:40;101583.13;;;10.79;100.00
22333;BME280;11334;36.986;-121.936;2024-01-15T09:48:06;101585.78;;;10.79;100.00
22333;BME280;11334;36.986;-121.936;2024-01-15T09:50:33;101577.00;;;10.78;100.00
22333;BME280;11334;36.986;-121.936;2024-01-15T09:53:00;101591.94;;;10.89;100.00
22333;BME280;11334;36.986;-121.936;2024-01-15T09:55:27;101587.03;;;10.84;100.00
22333;BME280;11334;36.986;-121.936;2024-01-15T09:57:55;101589.56;;;10.86;100.00
22333;BME280;11334;36.986;-121.936;2024-01-15T10:00:22;101598.91;;;10.80;100.00
22333;BME280;11334;36.986;-121.936;2024-01-15T10:02:49;101598.91;;;10.80;100.00
22333;BME280;11334;36.986;-121.936;2024-01-15T10:05:15;101588.16;;;10.73;100.00
22333;BME280;11334;36.986;-121.936;2024-01-15T10:07:42;101611.59;;;10.86;100.00
22333;BME280;11334;36.986;-121.936;2024-01-15T10:10:10;101613.16;;;10.89;100.00
22333;BME280;11334;36.986;-121.936;2024-01-15T10:12:37;101616.38;;;10.83;100.00
22333;BME280;11334;36.986;-121.936;2024-01-15T10:15:05;101604.78;;;10.84;100.00
22333;BME280;11334;36.986;-121.936;2024-01-15T10:17:32;101605.59;;;10.84;100.00
22333;BME280;11334;36.986;-121.936;2024-01-15T10:19:58;101616.88;;;10.77;100.00
22333;BME280;11334;36.986;-121.936;2024-01-15T10:22:25;101606.56;;;10.74;100.00
22333;BME280;11334;36.986;-121.936;2024-01-15T10:24:51;101599.19;;;10.77;100.00
22333;BME280;11334;36.986;-121.936;2024-01-15T10:27:18;101601.41;;;10.82;100.00
22333;BME280;11334;36.986;-121.936;2024-01-15T10:29:44;101605.59;;;10.84;100.00
22333;BME280;11334;36.986;-121.936;2024-01-15T10:32:11;101600.75;;;10.80;100.00
22333;BME280;11334;36.986;-121.936;2024-01-15T10:34:38;101601.84;;;10.77;100.00
22333;BME280;11334;36.986;-121.936;2024-01-15T10:37:08;101598.78;;;10.73;100.00
22333;BME280;11334;36.986;-121.936;2024-01-15T10:39:36;101588.84;;;10.74;100.00
22333;BME280;11334;36.986;-121.936;2024-01-15T10:42:03;101586.63;;;10.70;100.00
22333;BME280;11334;36.986;-121.936;2024-01-15T10:44:29;101591.66;;;10.73;100.00
22333;BME280;11334;36.986;-121.936;2024-01-15T10:46:57;101569.31;;;10.66;100.00
22333;BME280;11334;36.986;-121.936;2024-01-15T10:49:23;101570.13;;;10.57;100.00
22333;BME280;11334;36.986;-121.936;2024-01-15T10:51:53;101580.47;;;10.70;100.00
22333;BME280;11334;36.986;-121.936;2024-01-15T10:54:20;101583.00;;;10.71;100.00
22333;BME280;11334;36.986;-121.936;2024-01-15T10:56:47;101583.00;;;10.71;100.00
22333;BME280;11334;36.986;-121.936;2024-01-15T10:59:13;101577.53;;;10.63;100.00
22333;BME280;11334;36.986;-121.936;2024-01-15T11:01:42;101581.31;;;10.61;100.00
22333;BME280;11334;36.986;-121.936;2024-01-15T11:04:09;101577.66;;;10.62;100.00
22333;BME280;11334;36.986;-121.936;2024-01-15T11:06:46;101580.59;;;10.59;100.00
22333;BME280;11334;36.986;-121.936;2024-01-15T11:09:13;101567.47;;;10.57;100.00
22333;BME280;11334;36.986;-121.936;2024-01-15T11:11:42;101573.34;;;10.61;100.00
22333;BME280;11334;36.986;-121.936;2024-01-15T11:14:09;101574.91;;;10.63;100.00
22333;BME280;11334;36.986;-121.936;2024-01-15T11:16:57;101571.41;;;10.63;100.00
22333;BME280;11334;36.986;-121.936;2024-01-15T11:19:25;101571.00;;;10.58;100.00
22333;BME280;11334;36.986;-121.936;2024-01-15T11:21:52;101558.44;;;10.50;100.00
22333;BME280;11334;36.986;-121.936;2024-01-15T11:27:02;101544.47;;;10.48;100.00
22333;BME280;11334;36.986;-121.936;2024-01-15T11:29:36;101543.63;;;10.39;100.00
22333;BME280;11334;36.986;-121.936;2024-01-15T11:32:07;101532.31;;;10.37;100.00
22333;BME280;11334;36.986;-121.936;2024-01-15T11:34:52;101528.44;;;10.41;100.00
22333;BME280;11334;36.986;-121.936;2024-01-15T11:37:20;101530.50;;;10.37;100.00
22333;BME280;11334;36.986;-121.936;2024-01-15T11:39:46;101529.94;;;10.34;100.00
22333;BME280;11334;36.986;-121.936;2024-01-15T11:42:13;101526.59;;;10.32;100.00
22333;BME280;11334;36.986;-121.936;2024-01-15T11:44:40;101524.06;;;10.30;100.00
22333;BME280;11334;36.986;-121.936;2024-01-15T11:47:08;101523.53;;;10.36;100.00
22333;BME280;11334;36.986;-121.936;2024-01-15T11:50:00;101528.25;;;10.33;100.00
22333;BME280;11334;36.986;-121.936;2024-01-15T11:52:33;101522.00;;;10.34;100.00
22333;BME280;11334;36.986;-121.936;2024-01-15T11:55:11;101515.00;;;10.33;100.00
22333;BME280;11334;36.986;-121.936;2024-01-15T12:00:07;101525.75;;;10.31;100.00
22333;BME280;11334;36.986;-121.936;2024-01-15T12:02:34;101520.75;;;10.28;100.00
22333;BME280;11334;36.986;-121.936;2024-01-15T12:05:00;101526.72;;;10.30;100.00
22333;BME280;11334;36.986;-121.936;2024-01-15T12:07:27;101531.34;;;10.28;100.00
22333;BME280;11334;36.986;-121.936;2024-01-15T12:09:53;101541.06;;;10.28;100.00
22333;BME280;11334;36.986;-121.936;2024-01-15T12:15:11;101534.91;;;10.18;100.00
22333;BME280;11334;36.986;-121.936;2024-01-15T12:17:38;101535.06;;;10.16;100.00